sensor_id;sensor_type;location;lat;lon;timestamp;P1;durP1;ratioP1;P2;durP2;ratioP2
67867;SDS011;54672;46.096;14.470;2024-01-11T00:00:23;28.38;;;10.18;;
67867;SDS011;54672;46.096;14.470;2024-01-11T00:02:49;19.85;;;8.57;;
67867;SDS011;54672;46.096;14.470;2024-01-11T00:05:14;23.88;;;10.10;;
67867;SDS011;54672;46.096;14.470;2024-01-11T00:07:39;23.77;;;9.63;;
67867;SDS011;54672;46.096;14.470;2024-01-11T00:10:05;25.45;;;9.63;;
67867;SDS011;54672;46.096;14.470;2024-01-11T00:12:30;26.15;;;8.98;;
67867;SDS011;54672;46.096;14.470;2024-01-11T00:14:56;27.75;;;10.18;;
67867;SDS011;54672;46.096;14.470;2024-01-11T00:17:23;21.40;;;9.75;;
67867;SDS011;54672;46.096;14.470;2024-01-11T00:19:50;26.33;;;10.98;;
67867;SDS011;54672;46.096;14.470;2024-01-11T00:22:15;22.92;;;10.18;;
67867;SDS011;54672;46.096;14.470;2024-01-11T00:24:41;23.92;;;10.05;;
67867;SDS011;54672;46.096;14.470;2024-01-11T00:27:06;24.63;;;10.07;;
67867;SDS011;54672;46.096;14.470;2024-01-11T00:29:32;27.23;;;10.10;;
67867;SDS011;54672;46.096;14.470;2024-01-11T00:31:58;28.73;;;10.65;;
67867;SDS011;54672;46.096;14.470;2024-01-11T00:34:24;22.13;;;9.25;;
67867;SDS011;54672;46.096;14.470;2024-01-11T00:36:49;27.08;;;8.65;;
67867;SDS011;54672;46.096;14.470;2024-01-11T00:39:15;21.02;;;9.27;;
67867;SDS011;54672;46.096;14.470;2024-01-11T00:41:40;26.60;;;9.73;;
67867;SDS011;54672;46.096;14.470;2024-01-11T00:44:06;34.38;;;10.43;;
67867;SDS011;54672;46.096;14.470;2024-01-11T00:46:32;22.95;;;8.88;;
67867;SDS011;54672;46.096;14.470;2024-01-11T00:48:58;26.05;;;9.52;;
67867;SDS011;54672;46.096;14.470;2024-01-11T00:51:23;14.20;;;7.13;;
67867;SDS011;54672;46.096;14.470;2024-01-11T00:53:49;19.55;;;9.68;;
67867;SDS011;54672;46.096;14.470;2024-01-11T00:56:17;21.95;;;10.55;;
67867;SDS011;54672;46.096;14.470;2024-01-11T00:58:43;16.17;;;8.38;;
67867;SDS011;54672;46.096;14.470;2024-01-11T01:01:09;13.80;;;7.93;;
67867;SDS011;54672;46.096;14.470;2024-01-11T01:03:35;15.10;;;7.20;;
67867;SDS011;54672;46.096;14.470;2024-01-11T01:06:01;10.68;;;5.95;;
67867;SDS011;54672;46.096;14.470;2024-01-11T01:08:27;15.38;;;7.10;;
67867;SDS011;54672;46.096;14.470;2024-01-11T01:10:52;16.27;;;7.65;;
67867;SDS011;54672;46.096;14.470;2024-01-11T01:13:18;17.42;;;7.85;;
67867;SDS011;54672;46.096;14.470;2024-01-11T01:15:43;13.50;;;7.05;;
67867;SDS011;54672;46.096;14.470;2024-01-11T01:18:08;25.05;;;9.52;;
67867;SDS011;54672;46.096;14.470;2024-01-11T01:20:34;19.58;;;9.25;;
67867;SDS011;54672;46.096;14.470;2024-01-11T01:22:59;13.43;;;8.25;;
67867;SDS011;54672;46.096;14.470;2024-01-11T01:25:25;20.90;;;8.23;;
67867;SDS011;54672;46.096;14.470;2024-01-11T01:27:50;20.77;;;9.02;;
67867;SDS011;54672;46.096;14.470;2024-01-11T01:30:16;10.20;;;7.30;;
67867;SDS011;54672;46.096;14.470;2024-01-11T01:32:41;9.57;;;5.80;;
67867;SDS011;54672;46.096;14.470;2024-01-11T01:35:07;23.52;;;9.25;;
67867;SDS011;54672;46.096;14.470;2024-01-11T01:37:32;17.08;;;8.02;;
67867;SDS011;54672;46.096;14.470;2024-01-11T01:39:58;19.70;;;8.93;;
67867;SDS011;54672;46.096;14.470;2024-01-11T01:42:23;8.80;;;4.03;;
67867;SDS011;54672;46.096;14.470;2024-01-11T01:44:49;15.57;;;7.72;;
67867;SDS011;54672;46.096;14.470;2024-01-11T01:47:14;21.58;;;9.40;;
67867;SDS011;54672;46.096;14.470;2024-01-11T01:49:41;21.23;;;8.77;;
67867;SDS011;54672;46.096;14.470;2024-01-11T01:52:08;14.50;;;8.43;;
67867;SDS011;54672;46.096;14.470;2024-01-11T01:54:35;34.00;;;11.55;;
67867;SDS011;54672;46.096;14.470;2024-01-11T01:57:01;25.88;;;9.52;;
67867;SDS011;54672;46.096;14.470;2024-01-11T01:59:28;19.85;;;9.15;;
67867;SDS011;54672;46.096;14.470;2024-01-11T02:01:55;19.15;;;8.13;;
67867;SDS011;54672;46.096;14.470;2024-01-11T02:04:21;22.17;;;9.75;;
67867;SDS011;54672;46.096;14.470;2024-01-11T02:06:47;24.70;;;11.20;;
67867;SDS011;54672;46.096;14.470;2024-01-11T02:09:14;18.23;;;7.93;;
67867;SDS011;54672;46.096;14.470;2024-01-11T02:11:42;22.48;;;8.60;;
67867;SDS011;54672;46.096;14.470;2024-01-11T02:14:10;34.10;;;9.18;;
67867;SDS011;54672;46.096;14.470;2024-01-11T02:16:36;19.88;;;9.15;;
67867;SDS011;54672;46.096;14.470;2024-01-11T02:19:02;25.88;;;11.65;;
67867;SDS011;54672;46.096;14.470;2024-01-11T02:21:30;19.90;;;8.98;;
67867;SDS011;54672;46.096;14.470;2024-01-11T02:24:04;24.95;;;10.82;;
67867;SDS011;54672;46.096;14.470;2024-01-11T02:26:30;16.70;;;8.38;;
67867;SDS011;54672;46.096;14.470;2024-01-11T02:28:56;22.67;;;10.15;;
67867;SDS011;54672;46.096;14.470;2024-01-11T02:31:21;20.15;;;8.18;;
67867;SDS011;54672;46.096;14.470;2024-01-11T02:33:47;21.88;;;8.35;;
67867;SDS011;54672;46.096;14.470;2024-01-11T02:36:13;22.92;;;9.82;;
67867;SDS011;54672;46.096;14.470;2024-01-11T02:38:38;25.20;;;10.02;;
67867;SDS011;54672;46.096;14.470;2024-01-11T02:41:06;22.10;;;10.43;;
67867;SDS011;54672;46.096;14.470;2024-01-11T02:43:33;21.63;;;8.85;;
67867;SDS011;54672;46.096;14.470;2024-01-11T02:46:00;17.05;;;7.30;;
67867;SDS011;54672;46.096;14.470;2024-01-11T02:48:29;34.65;;;10.85;;
67867;SDS011;54672;46.096;14.470;2024-01-11T02:50:56;24.33;;;9.45;;
67867;SDS011;54672;46.096;14.470;2024-01-11T02:53:22;27.20;;;9.32;;
67867;SDS011;54672;46.096;14.470;2024-01-11T02:55:48;22.15;;;9.25;;
67867;SDS011;54672;46.096;14.470;2024-01-11T02:58:14;16.33;;;8.98;;
67867;SDS011;54672;46.096;14.470;2024-01-11T03:00:40;22.27;;;9.57;;
67867;SDS011;54672;46.096;14.470;2024-01-11T03:03:05;29.15;;;11.77;;
67867;SDS011;54672;46.096;14.470;2024-01-11T03:05:31;16.98;;;7.82;;
67867;SDS011;54672;46.096;14.470;2024-01-11T03:07:56;20.52;;;6.70;;
67867;SDS011;54672;46.096;14.470;2024-01-11T03:10:22;24.35;;;8.98;;
67867;SDS011;54672;46.096;14.470;2024-01-11T03:12:47;19.92;;;10.73;;
67867;SDS011;54672;46.096;14.470;2024-01-11T03:15:14;20.20;;;8.57;;
67867;SDS011;54672;46.096;14.470;2024-01-11T03:17:40;19.48;;;8.95;;
67867;SDS011;54672;46.096;14.470;2024-01-11T03:20:06;15.75;;;8.15;;
67867;SDS011;54672;46.096;14.470;2024-01-11T03:22:32;16.67;;;9.43;;
67867;SDS011;54672;46.096;14.470;2024-01-11T03:24:58;20.50;;;10.07;;
67867;SDS011;54672;46.096;14.470;2024-01-11T03:27:23;10.30;;;6.53;;
67867;SDS011;54672;46.096;14.470;2024-01-11T03:29:49;19.05;;;6.95;;
67867;SDS011;54672;46.096;14.470;2024-01-11T03:32:15;20.52;;;9.02;;
67867;SDS011;54672;46.096;14.470;2024-01-11T03:34:40;25.00;;;9.48;;
67867;SDS011;54672;46.096;14.470;2024-01-11T03:37:06;24.55;;;9.30;;
67867;SDS011;54672;46.096;14.470;2024-01-11T03:39:32;22.85;;;10.82;;
67867;SDS011;54672;46.096;14.470;2024-01-11T03:41:58;19.25;;;8.95;;
67867;SDS011;54672;46.096;14.470;2024-01-11T03:44:23;34.63;;;10.27;;
67867;SDS011;54672;46.096;14.470;2024-01-11T03:46:48;22.27;;;9.45;;
67867;SDS011;54672;46.096;14.470;2024-01-11T03:49:14;23.42;;;10.40;;
67867;SDS011;54672;46.096;14.470;2024-01-11T03:51:39;25.80;;;9.48;;
67867;SDS011;54672;46.096;14.470;2024-01-11T03:54:05;20.45;;;9.18;;
67867;SDS011;54672;46.096;14.470;2024-01-11T03:56:30;21.92;;;9.95;;
67867;SDS011;54672;46.096;14.470;2024-01-11T03:58:56;21.35;;;9.07;;
67867;SDS011;54672;46.096;14.470;2024-01-11T04:01:21;19.58;;;9.02;;
67867;SDS011;54672;46.096;14.470;2024-01-11T04:03:46;20.63;;;8.80;;
67867;SDS011;54672;46.096;14.470;2024-01-11T04:06:21;32.50;;;9.40;;
67867;SDS011;54672;46.096;14.470;2024-01-11T04:08:49;23.58;;;9.00;;
67867;SDS011;54672;46.096;14.470;2024-01-11T04:11:15;26.30;;;9.35;;
67867;SDS011;54672;46.096;14.470;2024-01-11T04:13:40;24.50;;;10.15;;
67867;SDS011;54672;46.096;14.470;2024-01-11T04:16:06;20.88;;;8.85;;
67867;SDS011;54672;46.096;14.470;2024-01-11T04:18:32;24.50;;;9.43;;
67867;SDS011;54672;46.096;14.470;2024-01-11T04:20:57;15.18;;;8.40;;
67867;SDS011;54672;46.096;14.470;2024-01-11T04:23:23;26.20;;;9.48;;
67867;SDS011;54672;46.096;14.470;2024-01-11T04:25:48;20.23;;;8.18;;
67867;SDS011;54672;46.096;14.470;2024-01-11T04:28:16;31.08;;;10.68;;
67867;SDS011;54672;46.096;14.470;2024-01-11T04:30:42;30.73;;;11.75;;
67867;SDS011;54672;46.096;14.470;2024-01-11T04:33:07;23.30;;;10.95;;
67867;SDS011;54672;46.096;14.470;2024-01-11T04:35:33;12.70;;;6.20;;
67867;SDS011;54672;46.096;14.470;2024-01-11T04:37:58;21.17;;;10.35;;
67867;SDS011;54672;46.096;14.470;2024-01-11T04:40:24;12.95;;;7.35;;
67867;SDS011;54672;46.096;14.470;2024-01-11T04:42:49;23.13;;;8.98;;
67867;SDS011;54672;46.096;14.470;2024-01-11T04:45:14;29.80;;;9.27;;
67867;SDS011;54672;46.096;14.470;2024-01-11T04:47:40;20.88;;;10.02;;
67867;SDS011;54672;46.096;14.470;2024-01-11T04:50:06;18.13;;;8.40;;
67867;SDS011;54672;46.096;14.470;2024-01-11T04:52:32;19.05;;;8.82;;
67867;SDS011;54672;46.096;14.470;2024-01-11T04:54:57;28.67;;;11.55;;
67867;SDS011;54672;46.096;14.470;2024-01-11T04:57:23;33.08;;;13.30;;
67867;SDS011;54672;46.096;14.470;2024-01-11T04:59:48;17.90;;;8.93;;
67867;SDS011;54672;46.096;14.470;2024-01-11T05:02:14;26.88;;;10.70;;
67867;SDS011;54672;46.096;14.470;2024-01-11T05:04:39;31.65;;;12.52;;
67867;SDS011;54672;46.096;14.470;2024-01-11T05:07:05;28.85;;;11.57;;
67867;SDS011;54672;46.096;14.470;2024-01-11T05:09:30;18.23;;;9.75;;
67867;SDS011;54672;46.096;14.470;2024-01-11T05:11:55;26.20;;;11.65;;
67867;SDS011;54672;46.096;14.470;2024-01-11T05:14:21;19.23;;;8.88;;
67867;SDS011;54672;46.096;14.470;2024-01-11T05:16:46;20.00;;;9.98;;
67867;SDS011;54672;46.096;14.470;2024-01-11T05:19:12;14.18;;;8.25;;
67867;SDS011;54672;46.096;14.470;2024-01-11T05:21:37;20.67;;;7.80;;
67867;SDS011;54672;46.096;14.470;2024-01-11T05:24:02;19.67;;;9.85;;
67867;SDS011;54672;46.096;14.470;2024-01-11T05:26:28;14.73;;;6.60;;
67867;SDS011;54672;46.096;14.470;2024-01-11T05:28:53;19.75;;;9.13;;
67867;SDS011;54672;46.096;14.470;2024-01-11T05:31:19;23.23;;;9.55;;
67867;SDS011;54672;46.096;14.470;2024-01-11T05:33:44;23.25;;;9.73;;
67867;SDS011;54672;46.096;14.470;2024-01-11T05:36:11;13.25;;;5.80;;
67867;SDS011;54672;46.096;14.470;2024-01-11T05:38:37;21.25;;;9.85;;
67867;SDS011;54672;46.096;14.470;2024-01-11T05:41:03;19.80;;;9.10;;
67867;SDS011;54672;46.096;14.470;2024-01-11T05:43:29;22.23;;;10.10;;
67867;SDS011;54672;46.096;14.470;2024-01-11T05:45:54;20.27;;;9.88;;
67867;SDS011;54672;46.096;14.470;2024-01-11T05:48:20;29.27;;;11.65;;
67867;SDS011;54672;46.096;14.470;2024-01-11T05:50:45;27.27;;;13.10;;
67867;SDS011;54672;46.096;14.470;2024-01-11T05:53:11;32.30;;;13.45;;
67867;SDS011;54672;46.096;14.470;2024-01-11T05:55:37;29.15;;;12.93;;
67867;SDS011;54672;46.096;14.470;2024-01-11T05:58:03;31.42;;;13.43;;
67867;SDS011;54672;46.096;14.470;2024-01-11T06:00:29;26.17;;;12.50;;
67867;SDS011;54672;46.096;14.470;2024-01-11T06:02:54;21.90;;;10.40;;
67867;SDS011;54672;46.096;14.470;2024-01-11T06:05:20;20.38;;;9.52;;
67867;SDS011;54672;46.096;14.470;2024-01-11T06:07:45;25.95;;;10.55;;
67867;SDS011;54672;46.096;14.470;2024-01-11T06:10:11;33.25;;;13.20;;
67867;SDS011;54672;46.096;14.470;2024-01-11T06:12:36;24.17;;;11.43;;
67867;SDS011;54672;46.096;14.470;2024-01-11T06:15:02;29.40;;;12.82;;
67867;SDS011;54672;46.096;14.470;2024-01-11T06:17:28;30.63;;;12.27;;
67867;SDS011;54672;46.096;14.470;2024-01-11T06:19:53;23.50;;;11.80;;
67867;SDS011;54672;46.096;14.470;2024-01-11T06:22:20;27.05;;;11.60;;
67867;SDS011;54672;46.096;14.470;2024-01-11T06:24:45;23.80;;;9.93;;
67867;SDS011;54672;46.096;14.470;2024-01-11T06:27:11;25.08;;;9.25;;
67867;SDS011;54672;46.096;14.470;2024-01-11T06:29:36;29.02;;;10.63;;
67867;SDS011;54672;46.096;14.470;2024-01-11T06:32:01;25.13;;;10.35;;
67867;SDS011;54672;46.096;14.470;2024-01-11T06:34:27;29.17;;;11.15;;
67867;SDS011;54672;46.096;14.470;2024-01-11T06:36:53;26.55;;;12.52;;
67867;SDS011;54672;46.096;14.470;2024-01-11T06:39:19;30.80;;;12.88;;
67867;SDS011;54672;46.096;14.470;2024-01-11T06:41:44;28.85;;;12.98;;
67867;SDS011;54672;46.096;14.470;2024-01-11T06:44:10;32.40;;;12.45;;
67867;SDS011;54672;46.096;14.470;2024-01-11T06:46:35;24.02;;;10.23;;
67867;SDS011;54672;46.096;14.470;2024-01-11T06:49:04;24.88;;;10.70;;
67867;SDS011;54672;46.096;14.470;2024-01-11T06:51:29;20.40;;;8.15;;
67867;SDS011;54672;46.096;14.470;2024-01-11T06:53:55;19.63;;;10.25;;
67867;SDS011;54672;46.096;14.470;2024-01-11T06:56:20;25.00;;;10.05;;
67867;SDS011;54672;46.096;14.470;2024-01-11T06:58:46;24.10;;;9.75;;
67867;SDS011;54672;46.096;14.470;2024-01-11T07:01:12;19.15;;;10.80;;
67867;SDS011;54672;46.096;14.470;2024-01-11T07:03:40;22.63;;;10.82;;
67867;SDS011;54672;46.096;14.470;2024-01-11T07:06:06;22.38;;;10.85;;
67867;SDS011;54672;46.096;14.470;2024-01-11T07:08:32;22.50;;;10.48;;
67867;SDS011;54672;46.096;14.470;2024-01-11T07:10:59;27.40;;;11.35;;
67867;SDS011;54672;46.096;14.470;2024-01-11T07:13:25;31.92;;;12.68;;
67867;SDS011;54672;46.096;14.470;2024-01-11T07:15:51;36.72;;;14.30;;
67867;SDS011;54672;46.096;14.470;2024-01-11T07:18:17;29.15;;;13.43;;
67867;SDS011;54672;46.096;14.470;2024-01-11T07:20:43;31.73;;;14.82;;
67867;SDS011;54672;46.096;14.470;2024-01-11T07:23:09;30.98;;;14.07;;
67867;SDS011;54672;46.096;14.470;2024-01-11T07:25:34;34.42;;;14.02;;
67867;SDS011;54672;46.096;14.470;2024-01-11T07:28:00;35.30;;;14.32;;
67867;SDS011;54672;46.096;14.470;2024-01-11T07:30:26;28.45;;;13.90;;
67867;SDS011;54672;46.096;14.470;2024-01-11T07:32:51;32.95;;;13.02;;
67867;SDS011;54672;46.096;14.470;2024-01-11T07:35:17;26.88;;;14.57;;
67867;SDS011;54672;46.096;14.470;2024-01-11T07:37:42;32.88;;;13.95;;
67867;SDS011;54672;46.096;14.470;2024-01-11T07:40:08;27.45;;;12.32;;
67867;SDS011;54672;46.096;14.470;2024-01-11T07:42:39;34.38;;;12.95;;
67867;SDS011;54672;46.096;14.470;2024-01-11T07:45:05;36.58;;;15.27;;
67867;SDS011;54672;46.096;14.470;2024-01-11T07:47:32;37.97;;;16.27;;
67867;SDS011;54672;46.096;14.470;2024-01-11T07:49:58;32.10;;;15.18;;
67867;SDS011;54672;46.096;14.470;2024-01-11T07:52:24;34.88;;;15.20;;
67867;SDS011;54672;46.096;14.470;2024-01-11T07:54:49;41.67;;;18.20;;
67867;SDS011;54672;46.096;14.470;2024-01-11T07:57:14;43.70;;;16.20;;
67867;SDS011;54672;46.096;14.470;2024-01-11T07:59:40;26.35;;;11.80;;
67867;SDS011;54672;46.096;14.470;2024-01-11T08:02:06;36.97;;;14.35;;
67867;SDS011;54672;46.096;14.470;2024-01-11T08:04:32;32.67;;;12.68;;
67867;SDS011;54672;46.096;14.470;2024-01-11T08:06:58;26.67;;;12.20;;
67867;SDS011;54672;46.096;14.470;2024-01-11T08:09:25;33.92;;;12.98;;
67867;SDS011;54672;46.096;14.470;2024-01-11T08:11:51;27.63;;;12.88;;
67867;SDS011;54672;46.096;14.470;2024-01-11T08:14:18;32.75;;;13.80;;
67867;SDS011;54672;46.096;14.470;2024-01-11T08:16:45;35.22;;;12.65;;
67867;SDS011;54672;46.096;14.470;2024-01-11T08:19:11;33.38;;;13.88;;
67867;SDS011;54672;46.096;14.470;2024-01-11T08:21:38;31.55;;;14.48;;
67867;SDS011;54672;46.096;14.470;2024-01-11T08:24:04;32.88;;;13.13;;
67867;SDS011;54672;46.096;14.470;2024-01-11T08:26:30;37.88;;;13.23;;
67867;SDS011;54672;46.096;14.470;2024-01-11T08:28:55;32.88;;;15.32;;
67867;SDS011;54672;46.096;14.470;2024-01-11T08:31:21;32.88;;;12.30;;
67867;SDS011;54672;46.096;14.470;2024-01-11T08:33:46;35.42;;;14.73;;
67867;SDS011;54672;46.096;14.470;2024-01-11T08:36:12;38.00;;;15.25;;
67867;SDS011;54672;46.096;14.470;2024-01-11T08:38:38;35.80;;;13.63;;
67867;SDS011;54672;46.096;14.470;2024-01-11T08:41:04;33.60;;;15.27;;
67867;SDS011;54672;46.096;14.470;2024-01-11T08:43:29;27.98;;;12.80;;
67867;SDS011;54672;46.096;14.470;2024-01-11T08:45:55;38.97;;;14.82;;
67867;SDS011;54672;46.096;14.470;2024-01-11T08:48:20;38.45;;;16.83;;
67867;SDS011;54672;46.096;14.470;2024-01-11T08:50:46;36.40;;;15.35;;
67867;SDS011;54672;46.096;14.470;2024-01-11T08:53:12;37.97;;;14.60;;
67867;SDS011;54672;46.096;14.470;2024-01-11T08:55:37;38.65;;;14.45;;
67867;SDS011;54672;46.096;14.470;2024-01-11T08:58:03;37.00;;;15.05;;
67867;SDS011;54672;46.096;14.470;2024-01-11T09:00:29;35.03;;;14.82;;
67867;SDS011;54672;46.096;14.470;2024-01-11T09:02:55;31.10;;;12.68;;
67867;SDS011;54672;46.096;14.470;2024-01-11T09:05:20;35.15;;;14.32;;
67867;SDS011;54672;46.096;14.470;2024-01-11T09:07:46;34.33;;;15.45;;
67867;SDS011;54672;46.096;14.470;2024-01-11T09:10:12;32.95;;;13.43;;
67867;SDS011;54672;46.096;14.470;2024-01-11T09:12:37;41.10;;;15.52;;
67867;SDS011;54672;46.096;14.470;2024-01-11T09:15:03;33.63;;;14.32;;
67867;SDS011;54672;46.096;14.470;2024-01-11T09:17:29;32.85;;;14.07;;
67867;SDS011;54672;46.096;14.470;2024-01-11T09:19:54;34.90;;;15.73;;
67867;SDS011;54672;46.096;14.470;2024-01-11T09:22:20;38.55;;;15.38;;
67867;SDS011;54672;46.096;14.470;2024-01-11T09:24:45;35.13;;;14.57;;
67867;SDS011;54672;46.096;14.470;2024-01-11T09:27:10;37.28;;;12.95;;
67867;SDS011;54672;46.096;14.470;2024-01-11T09:29:36;33.58;;;14.48;;
67867;SDS011;54672;46.096;14.470;2024-01-11T09:32:01;42.33;;;13.55;;
67867;SDS011;54672;46.096;14.470;2024-01-11T09:34:27;40.28;;;15.70;;
67867;SDS011;54672;46.096;14.470;2024-01-11T09:36:52;36.42;;;15.15;;
67867;SDS011;54672;46.096;14.470;2024-01-11T09:39:18;27.98;;;12.65;;
67867;SDS011;54672;46.096;14.470;2024-01-11T09:41:47;41.28;;;15.43;;
67867;SDS011;54672;46.096;14.470;2024-01-11T09:44:17;37.55;;;13.27;;
67867;SDS011;54672;46.096;14.470;2024-01-11T09:46:44;36.38;;;15.70;;
67867;SDS011;54672;46.096;14.470;2024-01-11T09:49:09;31.27;;;11.57;;
67867;SDS011;54672;46.096;14.470;2024-01-11T09:51:37;33.97;;;13.27;;
67867;SDS011;54672;46.096;14.470;2024-01-11T09:54:03;26.35;;;13.52;;
67867;SDS011;54672;46.096;14.470;2024-01-11T09:56:29;37.70;;;14.73;;
67867;SDS011;54672;46.096;14.470;2024-01-11T09:58:56;31.88;;;14.60;;
67867;SDS011;54672;46.096;14.470;2024-01-11T10:01:21;35.15;;;13.10;;
67867;SDS011;54672;46.096;14.470;2024-01-11T10:03:48;36.85;;;13.43;;
67867;SDS011;54672;46.096;14.470;2024-01-11T10:06:13;32.15;;;13.88;;
67867;SDS011;54672;46.096;14.470;2024-01-11T10:08:40;38.88;;;15.13;;
67867;SDS011;54672;46.096;14.470;2024-01-11T10:11:06;25.95;;;12.25;;
67867;SDS011;54672;46.096;14.470;2024-01-11T10:13:32;40.28;;;14.77;;
67867;SDS011;54672;46.096;14.470;2024-01-11T10:16:10;31.70;;;14.63;;
67867;SDS011;54672;46.096;14.470;2024-01-11T10:18:40;31.80;;;11.98;;
67867;SDS011;54672;46.096;14.470;2024-01-11T10:21:09;39.03;;;14.18;;
67867;SDS011;54672;46.096;14.470;2024-01-11T10:23:37;37.42;;;16.10;;
67867;SDS011;54672;46.096;14.470;2024-01-11T10:26:04;30.02;;;14.65;;
67867;SDS011;54672;46.096;14.470;2024-01-11T10:28:29;43.63;;;15.25;;
67867;SDS011;54672;46.096;14.470;2024-01-11T10:30:55;39.83;;;15.43;;
67867;SDS011;54672;46.096;14.470;2024-01-11T10:33:22;35.28;;;12.85;;
67867;SDS011;54672;46.096;14.470;2024-01-11T10:35:48;43.28;;;15.25;;
67867;SDS011;54672;46.096;14.470;2024-01-11T10:38:15;31.48;;;15.02;;
67867;SDS011;54672;46.096;14.470;2024-01-11T10:40:41;45.50;;;16.23;;
67867;SDS011;54672;46.096;14.470;2024-01-11T10:43:08;37.88;;;14.85;;
67867;SDS011;54672;46.096;14.470;2024-01-11T10:45:38;32.63;;;13.48;;
67867;SDS011;54672;46.096;14.470;2024-01-11T10:48:06;36.00;;;12.93;;
67867;SDS011;54672;46.096;14.470;2024-01-11T10:50:37;35.28;;;13.98;;
67867;SDS011;54672;46.096;14.470;2024-01-11T10:55:55;35.08;;;14.68;;
67867;SDS011;54672;46.096;14.470;2024-01-11T10:58:24;26.50;;;13.13;;
67867;SDS011;54672;46.096;14.470;2024-01-11T11:00:51;35.97;;;15.43;;
67867;SDS011;54672;46.096;14.470;2024-01-11T11:03:19;37.35;;;14.85;;
67867;SDS011;54672;46.096;14.470;2024-01-11T11:05:47;38.15;;;17.13;;
67867;SDS011;54672;46.096;14.470;2024-01-11T11:08:15;44.13;;;15.88;;
67867;SDS011;54672;46.096;14.470;2024-01-11T11:10:42;32.88;;;13.32;;
67867;SDS011;54672;46.096;14.470;2024-01-11T11:13:09;38.95;;;14.75;;
67867;SDS011;54672;46.096;14.470;2024-01-11T11:15:35;34.30;;;12.98;;
67867;SDS011;54672;46.096;14.470;2024-01-11T11:18:02;37.83;;;15.85;;
67867;SDS011;54672;46.096;14.470;2024-01-11T11:20:27;31.23;;;14.13;;
67867;SDS011;54672;46.096;14.470;2024-01-11T11:23:03;33.13;;;15.60;;
67867;SDS011;54672;46.096;14.470;2024-01-11T11:25:30;40.63;;;15.77;;
67867;SDS011;54672;46.096;14.470;2024-01-11T11:27:55;45.53;;;16.77;;
67867;SDS011;54672;46.096;14.470;2024-01-11T11:30:21;33.03;;;13.18;;
67867;SDS011;54672;46.096;14.470;2024-01-11T11:32:46;49.92;;;15.95;;
67867;SDS011;54672;46.096;14.470;2024-01-11T11:35:12;25.80;;;11.75;;
67867;SDS011;54672;46.096;14.470;2024-01-11T11:37:38;33.13;;;13.48;;
67867;SDS011;54672;46.096;14.470;2024-01-11T11:40:05;31.67;;;13.95;;
67867;SDS011;54672;46.096;14.470;2024-01-11T11:42:32;37.05;;;15.77;;
67867;SDS011;54672;46.096;14.470;2024-01-11T11:45:00;36.65;;;14.15;;
67867;SDS011;54672;46.096;14.470;2024-01-11T11:47:34;26.55;;;10.32;;
67867;SDS011;54672;46.096;14.470;2024-01-11T11:52:33;48.28;;;14.65;;
67867;SDS011;54672;46.096;14.470;2024-01-11T11:55:02;35.10;;;16.15;;
67867;SDS011;54672;46.096;14.470;2024-01-11T11:57:29;42.05;;;16.45;;
67867;SDS011;54672;46.096;14.470;2024-01-11T11:59:55;32.17;;;13.07;;
67867;SDS011;54672;46.096;14.470;2024-01-11T12:02:25;33.83;;;12.20;;
67867;SDS011;54672;46.096;14.470;2024-01-11T12:04:52;35.63;;;14.98;;
67867;SDS011;54672;46.096;14.470;2024-01-11T12:07:19;28.30;;;12.10;;
67867;SDS011;54672;46.096;14.470;2024-01-11T12:09:45;34.10;;;13.02;;
67867;SDS011;54672;46.096;14.470;2024-01-11T12:12:11;37.60;;;15.02;;
67867;SDS011;54672;46.096;14.470;2024-01-11T12:14:38;34.83;;;12.45;;
67867;SDS011;54672;46.096;14.470;2024-01-11T12:17:03;30.45;;;10.82;;
67867;SDS011;54672;46.096;14.470;2024-01-11T12:19:29;26.80;;;11.38;;
67867;SDS011;54672;46.096;14.470;2024-01-11T12:21:54;34.65;;;13.20;;
67867;SDS011;54672;46.096;14.470;2024-01-11T12:24:20;35.10;;;13.00;;
67867;SDS011;54672;46.096;14.470;2024-01-11T12:26:48;28.45;;;12.05;;
67867;SDS011;54672;46.096;14.470;2024-01-11T12:29:17;32.45;;;12.80;;
67867;SDS011;54672;46.096;14.470;2024-01-11T12:31:43;28.88;;;11.60;;
67867;SDS011;54672;46.096;14.470;2024-01-11T12:34:09;33.60;;;13.43;;
67867;SDS011;54672;46.096;14.470;2024-01-11T12:36:36;34.13;;;13.45;;
67867;SDS011;54672;46.096;14.470;2024-01-11T12:39:01;29.08;;;12.18;;
67867;SDS011;54672;46.096;14.470;2024-01-11T12:41:29;30.45;;;12.48;;
67867;SDS011;54672;46.096;14.470;2024-01-11T12:43:54;42.53;;;14.02;;
67867;SDS011;54672;46.096;14.470;2024-01-11T12:46:20;37.03;;;15.63;;
67867;SDS011;54672;46.096;14.470;2024-01-11T12:48:47;31.63;;;13.55;;
67867;SDS011;54672;46.096;14.470;2024-01-11T12:51:13;22.60;;;10.23;;
67867;SDS011;54672;46.096;14.470;2024-01-11T12:53:41;36.53;;;13.85;;
67867;SDS011;54672;46.096;14.470;2024-01-11T12:56:07;35.50;;;13.02;;
67867;SDS011;54672;46.096;14.470;2024-01-11T12:58:35;28.90;;;10.00;;
67867;SDS011;54672;46.096;14.470;2024-01-11T13:01:01;33.65;;;13.00;;
67867;SDS011;54672;46.096;14.470;2024-01-11T13:03:27;25.27;;;10.90;;
67867;SDS011;54672;46.096;14.470;2024-01-11T13:05:53;22.55;;;10.77;;
67867;SDS011;54672;46.096;14.470;2024-01-11T13:08:19;23.17;;;9.82;;
67867;SDS011;54672;46.096;14.470;2024-01-11T13:10:44;39.03;;;14.98;;
67867;SDS011;54672;46.096;14.470;2024-01-11T13:13:12;42.00;;;18.13;;
67867;SDS011;54672;46.096;14.470;2024-01-11T13:15:37;51.75;;;17.55;;
67867;SDS011;54672;46.096;14.470;2024-01-11T13:18:03;24.95;;;10.60;;
67867;SDS011;54672;46.096;14.470;2024-01-11T13:20:29;27.65;;;11.38;;
67867;SDS011;54672;46.096;14.470;2024-01-11T13:23:11;21.70;;;8.82;;
67867;SDS011;54672;46.096;14.470;2024-01-11T13:25:40;27.08;;;9.90;;
67867;SDS011;54672;46.096;14.470;2024-01-11T13:28:09;23.17;;;9.65;;
67867;SDS011;54672;46.096;14.470;2024-01-11T13:30:39;21.15;;;8.98;;
67867;SDS011;54672;46.096;14.470;2024-01-11T13:33:05;16.75;;;7.88;;
67867;SDS011;54672;46.096;14.470;2024-01-11T13:35:33;18.05;;;7.28;;
67867;SDS011;54672;46.096;14.470;2024-01-11T13:38:01;16.75;;;6.70;;
67867;SDS011;54672;46.096;14.470;2024-01-11T13:40:28;16.92;;;6.60;;
67867;SDS011;54672;46.096;14.470;2024-01-11T13:42:54;22.75;;;7.85;;
67867;SDS011;54672;46.096;14.470;2024-01-11T13:45:21;21.00;;;8.55;;
67867;SDS011;54672;46.096;14.470;2024-01-11T13:47:47;23.85;;;10.02;;
67867;SDS011;54672;46.096;14.470;2024-01-11T13:50:12;24.20;;;9.38;;
67867;SDS011;54672;46.096;14.470;2024-01-11T13:52:38;23.08;;;9.98;;
67867;SDS011;54672;46.096;14.470;2024-01-11T13:55:03;22.27;;;9.38;;
67867;SDS011;54672;46.096;14.470;2024-01-11T13:57:29;23.17;;;9.43;;
67867;SDS011;54672;46.096;14.470;2024-01-11T13:59:55;23.45;;;9.00;;
67867;SDS011;54672;46.096;14.470;2024-01-11T14:02:20;26.08;;;10.73;;
67867;SDS011;54672;46.096;14.470;2024-01-11T14:04:46;27.63;;;10.18;;
67867;SDS011;54672;46.096;14.470;2024-01-11T14:07:11;27.42;;;10.40;;
67867;SDS011;54672;46.096;14.470;2024-01-11T14:09:37;26.23;;;9.90;;
67867;SDS011;54672;46.096;14.470;2024-01-11T14:12:02;24.75;;;10.18;;